sensor_id;sensor_type;location;lat;lon;timestamp;pressure;altitude;pressure_sealevel;temperature;humidity
64141;BME280;50436;50.618;7.932;2023-09-18T00:01:24;95901.41;;;18.37;100.00
64141;BME280;50436;50.618;7.932;2023-09-18T00:04:10;95894.06;;;18.38;100.00
64141;BME280;50436;50.618;7.932;2023-09-18T00:06:56;95885.59;;;18.31;100.00
64141;BME280;50436;50.618;7.932;2023-09-18T00:09:42;95878.59;;;18.30;100.00
64141;BME280;50436;50.618;7.932;2023-09-18T00:12:27;95872.84;;;18.31;100.00
64141;BME280;50436;50.618;7.932;2023-09-18T00:15:13;95867.75;;;18.30;100.00
64141;BME280;50436;50.618;7.932;2023-09-18T00:17:59;95873.97;;;18.30;100.00
64141;BME280;50436;50.618;7.932;2023-09-18T00:20:45;95870.59;;;18.25;100.00
64141;BME280;50436;50.618;7.932;2023-09-18T00:23:32;95864.34;;;18.16;100.00
64141;BME280;50436;50.618;7.932;2023-09-18T00:26:20;95851.91;;;18.15;100.00
64141;BME280;50436;50.618;7.932;2023-09-18T00:29:10;95863.84;;;18.14;100.00
64141;BME280;50436;50.618;7.932;2023-09-18T00:31:56;95850.44;;;18.08;100.00
64141;BME280;50436;50.618;7.932;2023-09-18T00:34:42;95859.00;;;18.02;100.00
64141;BME280;50436;50.618;7.932;2023-09-18T00:37:28;95849.59;;;17.99;100.00
64141;BME280;50436;50.618;7.932;2023-09-18T00:40:14;95843.06;;;18.00;100.00
64141;BME280;50436;50.618;7.932;2023-09-18T00:43:00;95842.28;;;18.00;100.00
64141;BME280;50436;50.618;7.932;2023-09-18T00:45:47;95837.97;;;17.99;100.00
64141;BME280;50436;50.618;7.932;2023-09-18T00:48:33;95842.50;;;17.90;100.00
64141;BME280;50436;50.618;7.932;2023-09-18T00:51:19;95836.94;;;17.86;100.00
64141;BME280;50436;50.618;7.932;2023-09-18T00:54:06;95837.06;;;17.81;100.00
64141;BME280;50436;50.618;7.932;2023-09-18T00:56:53;95829.13;;;17.85;100.00
64141;BME280;50436;50.618;7.932;2023-09-18T00:59:40;95824.84;;;17.84;100.00
64141;BME280;50436;50.618;7.932;2023-09-18T01:02:26;95815.91;;;17.83;100.00
64141;BME280;50436;50.618;7.932;2023-09-18T01:05:13;95815.41;;;17.81;100.00
64141;BME280;50436;50.618;7.932;2023-09-18T01:08:02;95817.31;;;17.80;100.00
64141;BME280;50436;50.618;7.932;2023-09-18T01:17:06;95818.84;;;17.73;100.00
64141;BME280;50436;50.618;7.932;2023-09-18T01:19:56;95810.53;;;17.69;100.00
64141;BME280;50436;50.618;7.932;2023-09-18T01:22:42;95813.38;;;17.64;100.00
64141;BME280;50436;50.618;7.932;2023-09-18T01:25:31;95807.16;;;17.64;100.00
64141;BME280;50436;50.618;7.932;2023-09-18T01:28:19;95803.34;;;17.65;100.00
64141;BME280;50436;50.618;7.932;2023-09-18T01:31:04;95812.69;;;17.59;100.00
64141;BME280;50436;50.618;7.932;2023-09-18T01:33:50;95818.72;;;17.55;100.00
64141;BME280;50436;50.618;7.932;2023-09-18T01:36:36;95822.44;;;17.60;100.00
64141;BME280;50436;50.618;7.932;2023-09-18T01:39:26;95810.81;;;17.59;100.00
64141;BME280;50436;50.618;7.932;2023-09-18T01:42:17;95811.28;;;17.61;100.00
64141;BME280;50436;50.618;7.932;2023-09-18T01:45:03;95814.97;;;17.65;100.00
64141;BME280;50436;50.618;7.932;2023-09-18T01:47:50;95803.44;;;17.73;100.00
64141;BME280;50436;50.618;7.932;2023-09-18T01:50:37;95801.88;;;17.81;100.00
64141;BME280;50436;50.618;7.932;2023-09-18T01:53:25;95797.44;;;17.85;100.00
64141;BME280;50436;50.618;7.932;2023-09-18T01:56:12;95792.41;;;17.92;100.00
64141;BME280;50436;50.618;7.932;2023-09-18T01:58:57;95799.09;;;17.95;100.00
64141;BME280;50436;50.618;7.932;2023-09-18T02:01:44;95801.78;;;17.95;100.00
64141;BME280;50436;50.618;7.932;2023-09-18T02:04:30;95808.69;;;18.01;100.00
64141;BME280;50436;50.618;7.932;2023-09-18T02:07:15;95849.63;;;18.08;100.00
64141;BME280;50436;50.618;7.932;2023-09-18T02:10:01;95874.03;;;18.17;100.00
64141;BME280;50436;50.618;7.932;2023-09-18T02:12:48;95892.59;;;18.32;100.00
64141;BME280;50436;50.618;7.932;2023-09-18T02:15:38;95900.75;;;18.41;100.00
64141;BME280;50436;50.618;7.932;2023-09-18T02:18:24;95905.91;;;18.51;100.00
64141;BME280;50436;50.618;7.932;2023-09-18T02:21:10;95885.91;;;18.29;100.00
64141;BME280;50436;50.618;7.932;2023-09-18T02:23:56;95884.78;;;18.30;100.00
64141;BME280;50436;50.618;7.932;2023-09-18T02:26:42;95886.03;;;18.24;100.00
64141;BME280;50436;50.618;7.932;2023-09-18T02:29:27;95873.41;;;18.20;100.00
64141;BME280;50436;50.618;7.932;2023-09-18T02:32:14;95869.25;;;18.14;100.00
64141;BME280;50436;50.618;7.932;2023-09-18T02:35:00;95861.81;;;17.97;100.00
64141;BME280;50436;50.618;7.932;2023-09-18T02:37:48;95833.47;;;17.94;100.00
64141;BME280;50436;50.618;7.932;2023-09-18T02:40:34;95817.59;;;18.01;100.00
64141;BME280;50436;50.618;7.932;2023-09-18T02:43:20;95795.28;;;17.96;100.00
64141;BME280;50436;50.618;7.932;2023-09-18T02:46:08;95772.00;;;17.86;100.00
64141;BME280;50436;50.618;7.932;2023-09-18T02:48:54;95751.78;;;17.84;100.00
64141;BME280;50436;50.618;7.932;2023-09-18T02:51:40;95724.03;;;17.78;100.00
64141;BME280;50436;50.618;7.932;2023-09-18T02:54:26;95733.25;;;17.46;100.00
64141;BME280;50436;50.618;7.932;2023-09-18T02:57:12;95724.22;;;17.28;100.00
64141;BME280;50436;50.618;7.932;2023-09-18T03:00:00;95709.72;;;17.24;100.00
64141;BME280;50436;50.618;7.932;2023-09-18T03:02:46;95706.06;;;17.20;100.00
64141;BME280;50436;50.618;7.932;2023-09-18T03:05:31;95708.97;;;17.32;100.00
64141;BME280;50436;50.618;7.932;2023-09-18T03:08:17;95705.34;;;17.37;100.00
64141;BME280;50436;50.618;7.932;2023-09-18T03:11:11;95708.00;;;17.28;100.00
64141;BME280;50436;50.618;7.932;2023-09-18T03:13:56;95708.28;;;17.26;100.00
64141;BME280;50436;50.618;7.932;2023-09-18T03:16:44;95693.50;;;17.24;100.00
64141;BME280;50436;50.618;7.932;2023-09-18T03:19:29;95697.44;;;17.18;100.00
64141;BME280;50436;50.618;7.932;2023-09-18T03:22:16;95710.72;;;17.06;100.00
64141;BME280;50436;50.618;7.932;2023-09-18T03:25:05;95711.75;;;16.96;100.00
64141;BME280;50436;50.618;7.932;2023-09-18T03:27:52;95733.44;;;16.82;100.00
64141;BME280;50436;50.618;7.932;2023-09-18T03:30:40;95736.25;;;16.77;100.00
64141;BME280;50436;50.618;7.932;2023-09-18T03:33:26;95731.03;;;16.67;100.00
64141;BME280;50436;50.618;7.932;2023-09-18T03:36:12;95731.34;;;16.65;100.00
64141;BME280;50436;50.618;7.932;2023-09-18T03:38:59;95733.06;;;16.61;100.00
64141;BME280;50436;50.618;7.932;2023-09-18T03:41:45;95734.66;;;16.62;100.00
64141;BME280;50436;50.618;7.932;2023-09-18T03:44:32;95737.66;;;16.61;100.00
64141;BME280;50436;50.618;7.932;2023-09-18T03:47:17;95737.66;;;16.61;100.00
64141;BME280;50436;50.618;7.932;2023-09-18T03:50:04;95733.63;;;16.72;100.00
64141;BME280;50436;50.618;7.932;2023-09-18T03:52:50;95740.03;;;16.76;100.00
64141;BME280;50436;50.618;7.932;2023-09-18T03:55:36;95726.16;;;16.69;100.00
64141;BME280;50436;50.618;7.932;2023-09-18T03:58:23;95720.75;;;16.69;100.00
64141;BME280;50436;50.618;7.932;2023-09-18T04:01:09;95719.72;;;16.65;100.00
64141;BME280;50436;50.618;7.932;2023-09-18T04:03:55;95716.03;;;16.61;100.00
64141;BME280;50436;50.618;7.932;2023-09-18T04:06:43;95722.88;;;16.58;100.00
64141;BME280;50436;50.618;7.932;2023-09-18T04:09:29;95726.66;;;16.57;100.00
64141;BME280;50436;50.618;7.932;2023-09-18T04:12:15;95728.44;;;16.62;100.00
64141;BME280;50436;50.618;7.932;2023-09-18T04:15:01;95723.84;;;16.62;100.00
64141;BME280;50436;50.618;7.932;2023-09-18T04:17:48;95719.84;;;16.60;100.00
64141;BME280;50436;50.618;7.932;2023-09-18T04:20:34;95713.34;;;16.61;100.00
64141;BME280;50436;50.618;7.932;2023-09-18T04:23:30;95715.44;;;16.64;100.00
64141;BME280;50436;50.618;7.932;2023-09-18T04:26:16;95716.53;;;16.63;100.00
64141;BME280;50436;50.618;7.932;2023-09-18T04:29:02;95722.56;;;16.60;100.00
64141;BME280;50436;50.618;7.932;2023-09-18T04:31:50;95719.38;;;16.58;100.00
64141;BME280;50436;50.618;7.932;2023-09-18T04:34:36;95699.84;;;16.61;100.00
64141;BME280;50436;50.618;7.932;2023-09-18T04:37:21;95670.94;;;16.61;100.00
64141;BME280;50436;50.618;7.932;2023-09-18T04:40:08;95680.94;;;16.75;100.00
64141;BME280;50436;50.618;7.932;2023-09-18T04:42:58;95666.63;;;16.74;100.00
64141;BME280;50436;50.618;7.932;2023-09-18T04:45:44;95667.22;;;16.71;100.00
64141;BME280;50436;50.618;7.932;2023-09-18T04:48:32;95660.22;;;16.70;100.00
64141;BME280;50436;50.618;7.932;2023-09-18T04:51:18;95653.72;;;16.71;100.00
64141;BME280;50436;50.618;7.932;2023-09-18T04:54:05;95654.31;;;16.68;100.00
64141;BME280;50436;50.618;7.932;2023-09-18T04:56:55;95646.31;;;16.63;100.00
64141;BME280;50436;50.618;7.932;2023-09-18T04:59:41;95661.41;;;16.64;100.00
64141;BME280;50436;50.618;7.932;2023-09-18T05:02:28;95649.44;;;16.56;100.00
64141;BME280;50436;50.618;7.932;2023-09-18T05:05:15;95640.53;;;16.56;100.00
64141;BME280;50436;50.618;7.932;2023-09-18T05:08:03;95638.63;;;16.56;100.00
64141;BME280;50436;50.618;7.932;2023-09-18T05:10:50;95633.53;;;16.55;100.00
64141;BME280;50436;50.618;7.932;2023-09-18T05:13:36;95631.84;;;16.59;100.00
64141;BME280;50436;50.618;7.932;2023-09-18T05:16:21;95625.66;;;16.58;100.00
64141;BME280;50436;50.618;7.932;2023-09-18T05:19:07;95643.66;;;16.49;100.00
64141;BME280;50436;50.618;7.932;2023-09-18T05:21:53;95671.09;;;16.42;100.00
64141;BME280;50436;50.618;7.932;2023-09-18T05:24:39;95699.19;;;16.41;100.00
64141;BME280;50436;50.618;7.932;2023-09-18T05:27:25;95709.69;;;16.43;100.00
64141;BME280;50436;50.618;7.932;2023-09-18T05:30:17;95703.50;;;16.42;100.00
64141;BME280;50436;50.618;7.932;2023-09-18T05:33:04;95709.00;;;16.37;100.00
64141;BME280;50436;50.618;7.932;2023-09-18T05:35:50;95719.91;;;16.32;100.00
64141;BME280;50436;50.618;7.932;2023-09-18T05:38:36;95726.88;;;16.33;100.00
64141;BME280;50436;50.618;7.932;2023-09-18T05:41:23;95744.59;;;16.39;100.00
64141;BME280;50436;50.618;7.932;2023-09-18T05:44:11;95730.50;;;16.42;100.00
64141;BME280;50436;50.618;7.932;2023-09-18T05:46:57;95725.59;;;16.44;100.00
64141;BME280;50436;50.618;7.932;2023-09-18T05:49:43;95732.50;;;16.51;100.00
64141;BME280;50436;50.618;7.932;2023-09-18T05:52:29;95740.47;;;16.56;100.00
64141;BME280;50436;50.618;7.932;2023-09-18T05:55:15;95724.63;;;16.63;100.00
64141;BME280;50436;50.618;7.932;2023-09-18T05:58:02;95722.25;;;16.61;100.00
64141;BME280;50436;50.618;7.932;2023-09-18T06:00:49;95715.63;;;16.67;100.00
64141;BME280;50436;50.618;7.932;2023-09-18T06:03:35;95691.03;;;16.69;100.00
64141;BME280;50436;50.618;7.932;2023-09-18T06:06:21;95692.63;;;16.70;100.00
64141;BME280;50436;50.618;7.932;2023-09-18T06:09:07;95699.03;;;16.74;100.00
64141;BME280;50436;50.618;7.932;2023-09-18T06:11:53;95703.03;;;16.77;100.00
64141;BME280;50436;50.618;7.932;2023-09-18T06:14:38;95705.25;;;16.75;100.00
64141;BME280;50436;50.618;7.932;2023-09-18T06:17:24;95710.03;;;16.78;100.00
64141;BME280;50436;50.618;7.932;2023-09-18T06:20:11;95712.41;;;16.79;100.00
64141;BME280;50436;50.618;7.932;2023-09-18T06:23:01;95707.81;;;16.80;100.00
64141;BME280;50436;50.618;7.932;2023-09-18T06:25:49;95688.09;;;16.79;100.00
64141;BME280;50436;50.618;7.932;2023-09-18T06:28:40;95709.41;;;16.81;100.00
64141;BME280;50436;50.618;7.932;2023-09-18T06:31:26;95704.63;;;16.78;100.00
64141;BME280;50436;50.618;7.932;2023-09-18T06:34:12;95723.34;;;16.74;100.00
64141;BME280;50436;50.618;7.932;2023-09-18T06:36:58;95707.44;;;16.73;100.00
64141;BME280;50436;50.618;7.932;2023-09-18T06:39:46;95702.03;;;16.73;100.00
64141;BME280;50436;50.618;7.932;2023-09-18T06:42:32;95684.53;;;16.70;100.00
64141;BME280;50436;50.618;7.932;2023-09-18T06:45:18;95698.03;;;16.70;100.00
64141;BME280;50436;50.618;7.932;2023-09-18T06:48:04;95700.00;;;16.78;100.00
64141;BME280;50436;50.618;7.932;2023-09-18T06:50:50;95701.59;;;16.79;100.00
64141;BME280;50436;50.618;7.932;2023-09-18T06:53:36;95694.81;;;16.82;100.00
64141;BME280;50436;50.618;7.932;2023-09-18T06:56:22;95703.78;;;16.91;100.00
64141;BME280;50436;50.618;7.932;2023-09-18T06:59:07;95708.38;;;16.90;100.00
64141;BME280;50436;50.618;7.932;2023-09-18T07:01:53;95701.13;;;16.99;100.00
64141;BME280;50436;50.618;7.932;2023-09-18T07:04:39;95714.75;;;17.17;100.00
64141;BME280;50436;50.618;7.932;2023-09-18T07:07:30;95715.06;;;17.15;100.00
64141;BME280;50436;50.618;7.932;2023-09-18T07:10:17;95724.41;;;17.32;100.00
64141;BME280;50436;50.618;7.932;2023-09-18T07:13:04;95721.63;;;17.45;100.00
64141;BME280;50436;50.618;7.932;2023-09-18T07:15:50;95707.94;;;17.50;100.00
64141;BME280;50436;50.618;7.932;2023-09-18T07:18:36;95732.03;;;17.61;100.00
64141;BME280;50436;50.618;7.932;2023-09-18T07:21:22;95713.25;;;17.55;100.00
64141;BME280;50436;50.618;7.932;2023-09-18T07:24:08;95721.63;;;17.45;100.00
64141;BME280;50436;50.618;7.932;2023-09-18T07:26:55;95725.66;;;17.57;100.00
64141;BME280;50436;50.618;7.932;2023-09-18T07:29:43;95737.47;;;17.61;100.00
64141;BME280;50436;50.618;7.932;2023-09-18T07:32:29;95740.56;;;17.45;100.00
64141;BME280;50436;50.618;7.932;2023-09-18T07:35:15;95736.91;;;17.50;100.00
64141;BME280;50436;50.618;7.932;2023-09-18T07:38:01;95733.03;;;17.42;100.00
64141;BME280;50436;50.618;7.932;2023-09-18T07:40:47;95743.09;;;17.50;100.00
64141;BME280;50436;50.618;7.932;2023-09-18T07:43:33;95757.53;;;17.37;100.00
64141;BME280;50436;50.618;7.932;2023-09-18T07:46:19;95757.84;;;17.36;100.00
64141;BME280;50436;50.618;7.932;2023-09-18T07:49:05;95756.41;;;17.38;100.00
64141;BME280;50436;50.618;7.932;2023-09-18T07:51:50;95764.84;;;17.37;100.00
64141;BME280;50436;50.618;7.932;2023-09-18T07:54:36;95794.31;;;17.24;100.00
64141;BME280;50436;50.618;7.932;2023-09-18T07:57:22;95784.72;;;17.41;100.00
64141;BME280;50436;50.618;7.932;2023-09-18T08:00:09;95785.72;;;17.45;100.00
64141;BME280;50436;50.618;7.932;2023-09-18T08:02:58;95791.31;;;17.48;100.00
64141;BME280;50436;50.618;7.932;2023-09-18T08:05:46;95784.78;;;17.49;100.00
64141;BME280;50436;50.618;7.932;2023-09-18T08:08:34;95799.94;;;17.28;100.00
64141;BME280;50436;50.618;7.932;2023-09-18T08:11:22;95807.69;;;17.43;100.00
64141;BME280;50436;50.618;7.932;2023-09-18T08:14:10;95819.28;;;17.44;100.00
64141;BME280;50436;50.618;7.932;2023-09-18T08:17:00;95827.84;;;17.60;100.00
64141;BME280;50436;50.618;7.932;2023-09-18T08:19:50;95842.22;;;17.46;100.00
64141;BME280;50436;50.618;7.932;2023-09-18T08:22:36;95832.63;;;17.40;100.00
64141;BME280;50436;50.618;7.932;2023-09-18T08:25:22;95825.13;;;17.37;100.00
64141;BME280;50436;50.618;7.932;2023-09-18T08:28:08;95838.72;;;17.46;100.00
64141;BME280;50436;50.618;7.932;2023-09-18T08:30:54;95835.09;;;17.28;100.00
64141;BME280;50436;50.618;7.932;2023-09-18T08:33:40;95837.41;;;17.21;100.00
64141;BME280;50436;50.618;7.932;2023-09-18T08:36:26;95835.31;;;17.40;100.00
64141;BME280;50436;50.618;7.932;2023-09-18T08:39:14;95842.00;;;17.43;100.00
64141;BME280;50436;50.618;7.932;2023-09-18T08:42:03;95854.56;;;17.39;100.00
64141;BME280;50436;50.618;7.932;2023-09-18T08:44:51;95858.91;;;17.26;100.00
64141;BME280;50436;50.618;7.932;2023-09-18T08:47:38;95849.03;;;17.44;100.00
64141;BME280;50436;50.618;7.932;2023-09-18T08:50:26;95849.19;;;17.25;100.00
64141;BME280;50436;50.618;7.932;2023-09-18T08:53:12;95836.59;;;17.43;100.00
64141;BME280;50436;50.618;7.932;2023-09-18T08:55:59;95815.28;;;17.64;100.00
64141;BME280;50436;50.618;7.932;2023-09-18T08:58:47;95828.63;;;17.60;100.00
64141;BME280;50436;50.618;7.932;2023-09-18T09:01:35;95827.22;;;17.63;100.00
64141;BME280;50436;50.618;7.932;2023-09-18T09:04:21;95832.25;;;17.55;100.00
64141;BME280;50436;50.618;7.932;2023-09-18T09:07:07;95819.19;;;17.71;100.00
64141;BME280;50436;50.618;7.932;2023-09-18T09:09:53;95829.19;;;17.93;100.00
64141;BME280;50436;50.618;7.932;2023-09-18T09:15:48;95830.03;;;17.80;100.00
64141;BME280;50436;50.618;7.932;2023-09-18T09:18:47;95823.50;;;18.03;100.00
64141;BME280;50436;50.618;7.932;2023-09-18T09:21:41;95828.91;;;18.03;100.00
64141;BME280;50436;50.618;7.932;2023-09-18T09:24:42;95830.47;;;17.73;100.00
64141;BME280;50436;50.618;7.932;2023-09-18T09:27:28;95850.44;;;17.64;100.00
64141;BME280;50436;50.618;7.932;2023-09-18T09:30:25;95833.69;;;17.75;100.00
64141;BME280;50436;50.618;7.932;2023-09-18T09:33:12;95821.78;;;17.63;100.00
64141;BME280;50436;50.618;7.932;2023-09-18T09:35:58;95824.50;;;17.85;100.00
64141;BME280;50436;50.618;7.932;2023-09-18T09:38:44;95813.69;;;17.85;100.00
64141;BME280;50436;50.618;7.932;2023-09-18T09:41:31;95837.19;;;17.76;100.00
64141;BME280;50436;50.618;7.932;2023-09-18T09:44:17;95840.22;;;17.74;100.00
64141;BME280;50436;50.618;7.932;2023-09-18T09:47:05;95842.34;;;17.86;100.00
64141;BME280;50436;50.618;7.932;2023-09-18T09:49:51;95829.44;;;17.83;100.00
64141;BME280;50436;50.618;7.932;2023-09-18T09:52:43;95829.09;;;17.76;100.00
64141;BME280;50436;50.618;7.932;2023-09-18T09:55:31;95823.06;;;17.65;100.00
64141;BME280;50436;50.618;7.932;2023-09-18T09:58:26;95823.13;;;17.96;100.00
64141;BME280;50436;50.618;7.932;2023-09-18T10:01:12;95829.19;;;17.93;100.00
64141;BME280;50436;50.618;7.932;2023-09-18T10:04:05;95831.25;;;17.96;100.00
64141;BME280;50436;50.618;7.932;2023-09-18T10:07:06;95832.94;;;17.84;100.00
64141;BME280;50436;50.618;7.932;2023-09-18T10:09:53;95834.06;;;17.83;100.00
64141;BME280;50436;50.618;7.932;2023-09-18T10:12:39;95835.59;;;17.75;100.00
64141;BME280;50436;50.618;7.932;2023-09-18T10:15:28;95852.56;;;17.67;100.00
64141;BME280;50436;50.618;7.932;2023-09-18T10:18:27;95837.91;;;17.68;100.00
64141;BME280;50436;50.618;7.932;2023-09-18T10:24:26;95822.38;;;17.73;100.00
64141;BME280;50436;50.618;7.932;2023-09-18T10:27:16;95848.41;;;17.69;100.00
64141;BME280;50436;50.618;7.932;2023-09-18T10:30:05;95853.25;;;17.59;100.00
64141;BME280;50436;50.618;7.932;2023-09-18T10:32:56;95861.25;;;17.77;100.00
64141;BME280;50436;50.618;7.932;2023-09-18T10:35:43;95875.63;;;17.87;100.00
64141;BME280;50436;50.618;7.932;2023-09-18T10:38:34;95880.41;;;17.90;100.00
64141;BME280;50436;50.618;7.932;2023-09-18T10:41:20;95878.31;;;17.87;100.00
64141;BME280;50436;50.618;7.932;2023-09-18T10:44:07;95881.47;;;17.80;100.00
64141;BME280;50436;50.618;7.932;2023-09-18T10:46:53;95880.81;;;17.74;100.00
64141;BME280;50436;50.618;7.932;2023-09-18T10:49:40;95872.72;;;17.61;100.00
64141;BME280;50436;50.618;7.932;2023-09-18T10:52:26;95886.09;;;17.66;100.00
64141;BME280;50436;50.618;7.932;2023-09-18T10:55:13;95866.94;;;17.98;100.00
64141;BME280;50436;50.618;7.932;2023-09-18T10:58:00;95877.97;;;17.79;100.00
64141;BME280;50436;50.618;7.932;2023-09-18T11:00:47;95864.31;;;17.85;100.00
64141;BME280;50436;50.618;7.932;2023-09-18T11:03:34;95853.59;;;17.79;100.00
64141;BME280;50436;50.618;7.932;2023-09-18T11:06:19;95848.03;;;18.07;100.00
64141;BME280;50436;50.618;7.932;2023-09-18T11:09:22;95851.75;;;17.89;100.00
64141;BME280;50436;50.618;7.932;2023-09-18T11:12:10;95850.34;;;17.91;100.00
64141;BME280;50436;50.618;7.932;2023-09-18T11:14:58;95859.13;;;17.97;100.00
64141;BME280;50436;50.618;7.932;2023-09-18T11:17:44;95846.44;;;18.06;100.00
64141;BME280;50436;50.618;7.932;2023-09-18T11:20:43;95851.25;;;18.49;100.00
64141;BME280;50436;50.618;7.932;2023-09-18T11:23:35;95833.38;;;18.87;100.00
64141;BME280;50436;50.618;7.932;2023-09-18T11:26:29;95836.22;;;18.82;100.00
64141;BME280;50436;50.618;7.932;2023-09-18T11:29:18;95847.56;;;18.84;100.00
64141;BME280;50436;50.618;7.932;2023-09-18T11:32:07;95845.47;;;18.81;100.00
64141;BME280;50436;50.618;7.932;2023-09-18T11:35:06;95843.25;;;18.83;100.00
64141;BME280;50436;50.618;7.932;2023-09-18T11:38:06;95843.53;;;18.73;100.00
64141;BME280;50436;50.618;7.932;2023-09-18T11:40:53;95837.88;;;19.01;100.00
64141;BME280;50436;50.618;7.932;2023-09-18T11:43:39;95847.94;;;19.87;100.00
64141;BME280;50436;50.618;7.932;2023-09-18T11:46:25;95847.31;;;19.72;100.00
64141;BME280;50436;50.618;7.932;2023-09-18T11:49:19;95848.91;;;19.73;100.00
64141;BME280;50436;50.618;7.932;2023-09-18T11:52:07;95830.06;;;19.51;100.00
64141;BME280;50436;50.618;7.932;2023-09-18T11:54:58;95829.28;;;19.59;100.00
64141;BME280;50436;50.618;7.932;2023-09-18T11:57:45;95816.56;;;20.83;100.00
64141;BME280;50436;50.618;7.932;2023-09-18T12:00:32;95836.22;;;20.03;100.00
64141;BME280;50436;50.618;7.932;2023-09-18T12:03:22;95838.19;;;21.09;100.00
64141;BME280;50436;50.618;7.932;2023-09-18T12:06:12;95827.13;;;20.84;100.00
64141;BME280;50436;50.618;7.932;2023-09-18T12:09:02;95814.44;;;23.12;100.00
64141;BME280;50436;50.618;7.932;2023-09-18T12:11:49;95809.19;;;24.47;100.00
64141;BME280;50436;50.618;7.932;2023-09-18T12:14:39;95799.03;;;26.79;100.00
64141;BME280;50436;50.618;7.932;2023-09-18T12:17:27;95803.38;;;24.99;100.00
64141;BME280;50436;50.618;7.932;2023-09-18T12:20:16;95832.34;;;23.65;100.00
64141;BME280;50436;50.618;7.932;2023-09-18T12:23:07;95826.13;;;23.12;100.00
64141;BME280;50436;50.618;7.932;2023-09-18T12:26:00;95829.25;;;21.83;100.00
64141;BME280;50436;50.618;7.932;2023-09-18T12:28:47;95819.72;;;22.22;100.00
64141;BME280;50436;50.618;7.932;2023-09-18T12:31:35;95814.00;;;24.22;100.00
64141;BME280;50436;50.618;7.932;2023-09-18T12:34:21;95803.56;;;27.17;97.03
64141;BME280;50436;50.618;7.932;2023-09-18T12:37:08;95810.50;;;27.11;97.33
64141;BME280;50436;50.618;7.932;2023-09-18T12:39:57;95811.34;;;26.20;100.00
64141;BME280;50436;50.618;7.932;2023-09-18T12:42:43;95823.66;;;24.19;100.00
64141;BME280;50436;50.618;7.932;2023-09-18T12:45:29;95822.03;;;24.30;100.00
64141;BME280;50436;50.618;7.932;2023-09-18T12:48:15;95817.53;;;24.69;100.00
64141;BME280;50436;50.618;7.932;2023-09-18T12:51:05;95819.06;;;26.83;96.26
64141;BME280;50436;50.618;7.932;2023-09-18T12:53:59;95801.78;;;29.39;80.05
64141;BME280;50436;50.618;7.932;2023-09-18T12:56:46;95794.34;;;30.66;68.38
64141;BME280;50436;50.618;7.932;2023-09-18T12:59:33;95815.44;;;31.83;55.91
64141;BME280;50436;50.618;7.932;2023-09-18T13:02:19;95804.50;;;32.28;57.06
64141;BME280;50436;50.618;7.932;2023-09-18T13:05:06;95807.59;;;31.57;60.90
64141;BME280;50436;50.618;7.932;2023-09-18T13:07:53;95799.25;;;31.82;54.22
64141;BME280;50436;50.618;7.932;2023-09-18T13:10:46;95800.19;;;31.15;57.20
64141;BME280;50436;50.618;7.932;2023-09-18T13:13:32;95796.63;;;31.39;62.37
64141;BME280;50436;50.618;7.932;2023-09-18T13:16:22;95782.47;;;33.90;45.78
64141;BME280;50436;50.618;7.932;2023-09-18T13:19:08;95784.13;;;32.01;51.35
64141;BME280;50436;50.618;7.932;2023-09-18T13:21:53;95790.72;;;27.59;80.48
64141;BME280;50436;50.618;7.932;2023-09-18T13:24:39;95795.00;;;24.92;96.66
64141;BME280;50436;50.618;7.932;2023-09-18T13:27:25;95791.78;;;25.41;93.09
64141;BME280;50436;50.618;7.932;2023-09-18T13:30:11;95795.25;;;25.57;95.40
64141;BME280;50436;50.618;7.932;2023-09-18T13:33:04;95796.72;;;24.49;99.72
64141;BME280;50436;50.618;7.932;2023-09-18T13:35:52;95781.84;;;26.59;90.07
64141;BME280;50436;50.618;7.932;2023-09-18T13:38:39;95792.72;;;27.62;87.07
64141;BME280;50436;50.618;7.932;2023-09-18T13:41:24;95772.25;;;30.77;64.18
64141;BME280;50436;50.618;7.932;2023-09-18T13:44:10;95779.28;;;33.57;51.95
64141;BME280;50436;50.618;7.932;2023-09-18T13:46:56;95787.44;;;32.48;49.21
64141;BME280;50436;50.618;7.932;2023-09-18T13:49:42;95781.50;;;29.80;70.90
64141;BME280;50436;50.618;7.932;2023-09-18T13:52:29;95775.75;;;28.64;71.13
64141;BME280;50436;50.618;7.932;2023-09-18T13:55:15;95774.72;;;28.01;79.43
64141;BME280;50436;50.618;7.932;2023-09-18T13:58:01;95770.78;;;29.50;72.40
64141;BME280;50436;50.618;7.932;2023-09-18T14:00:50;95778.22;;;26.52;88.79
64141;BME280;50436;50.618;7.932;2023-09-18T14:03:36;95770.78;;;28.88;75.31
64141;BME280;50436;50.618;7.932;2023-09-18T14:06:22;95773.47;;;26.75;86.85
64141;BME280;50436;50.618;7.932;2023-09-18T14:09:08;95762.13;;;26.50;88.99
64141;BME280;50436;50.618;7.932;2023-09-18T14:11:56;95762.59;;;29.71;71.20
64141;BME280;50436;50.618;7.932;2023-09-18T14:14:42;95758.00;;;31.07;58.73
64141;BME280;50436;50.618;7.932;2023-09-18T14:17:29;95749.19;;;32.32;49.71
64141;BME280;50436;50.618;7.932;2023-09-18T14:20:15;95750.19;;;33.38;47.62
64141;BME280;50436;50.618;7.932;2023-09-18T14:23:04;95745.16;;;32.92;43.26
64141;BME280;50436;50.618;7.932;2023-09-18T14:25:52;95761.16;;;30.48;52.99
64141;BME280;50436;50.618;7.932;2023-09-18T14:28:37;95733.69;;;28.67;67.24
64141;BME280;50436;50.618;7.932;2023-09-18T14:31:23;95737.09;;;27.38;76.62
64141;BME280;50436;50.618;7.932;2023-09-18T14:34:09;95729.56;;;30.03;65.62
64141;BME280;50436;50.618;7.932;2023-09-18T14:36:56;95733.72;;;32.34;53.41
64141;BME280;50436;50.618;7.932;2023-09-18T14:39:42;95739.50;;;31.99;48.99
64141;BME280;50436;50.618;7.932;2023-09-18T14:42:28;95737.06;;;31.13;56.60
64141;BME280;50436;50.618;7.932;2023-09-18T14:45:14;95736.78;;;27.77;75.21
64141;BME280;50436;50.618;7.932;2023-09-18T14:48:01;95745.31;;;29.92;64.15
64141;BME280;50436;50.618;7.932;2023-09-18T14:50:56;95735.94;;;30.71;55.54